createdAt,value
2022-08-26T00:00:18.010Z,24.99
2022-08-26T00:02:44.199Z,24.98
2022-08-26T00:05:10.380Z,24.81
2022-08-26T00:07:36.787Z,24.78
2022-08-26T00:10:03.541Z,24.76
2022-08-26T00:12:36.167Z,24.71
2022-08-26T00:15:04.010Z,24.60
2022-08-26T00:17:30.182Z,24.51
2022-08-26T00:19:56.381Z,24.29
2022-08-26T00:22:22.602Z,24.28
2022-08-26T00:24:49.031Z,24.33
2022-08-26T00:27:15.177Z,24.23
2022-08-26T00:29:41.912Z,24.19
2022-08-26T00:32:08.137Z,24.17
2022-08-26T00:34:34.360Z,24.13
2022-08-26T00:37:00.526Z,24.14
2022-08-26T00:39:26.696Z,24.10
2022-08-26T00:41:52.844Z,24.02
2022-08-26T00:44:19.014Z,23.97
2022-08-26T00:46:46.947Z,23.97
2022-08-26T00:49:13.354Z,24.06
2022-08-26T00:51:39.591Z,24.06
2022-08-26T00:54:05.727Z,23.79
2022-08-26T00:56:32.173Z,23.63
2022-08-26T00:58:58.314Z,23.57
2022-08-26T01:01:24.472Z,23.46
2022-08-26T01:03:50.687Z,23.50
2022-08-26T01:06:18.218Z,23.52
2022-08-26T01:08:44.349Z,23.52
2022-08-26T01:11:10.492Z,23.47
2022-08-26T01:13:36.653Z,23.42
2022-08-26T01:16:02.847Z,23.34
2022-08-26T01:18:29.007Z,23.29
2022-08-26T01:20:57.734Z,23.28
2022-08-26T01:23:24.060Z,23.22
2022-08-26T01:25:50.197Z,23.22
2022-08-26T01:28:17.122Z,23.21
2022-08-26T01:30:43.764Z,23.11
2022-08-26T01:33:10.111Z,23.02
2022-08-26T01:35:37.553Z,22.98
2022-08-26T01:38:03.700Z,22.98
2022-08-26T01:40:30.124Z,22.87
2022-08-26T01:42:56.322Z,22.88
2022-08-26T01:45:22.444Z,22.84
2022-08-26T01:47:48.575Z,22.81
2022-08-26T01:50:15.824Z,22.75
2022-08-26T01:52:54.632Z,22.67
2022-08-26T01:55:32.281Z,22.72
2022-08-26T01:57:59.688Z,22.61
2022-08-26T02:00:26.004Z,22.58
2022-08-26T02:02:53.413Z,22.50
2022-08-26T02:05:19.568Z,22.41
2022-08-26T02:07:45.733Z,22.46
2022-08-26T02:10:12.045Z,22.49
2022-08-26T02:12:38.181Z,22.28
2022-08-26T02:15:05.602Z,22.04
2022-08-26T02:17:31.989Z,21.99
2022-08-26T02:19:58.113Z,22.18
2022-08-26T02:22:24.697Z,22.19
2022-08-26T02:24:50.967Z,22.18
2022-08-26T02:27:17.156Z,22.23
2022-08-26T02:29:43.670Z,22.20
2022-08-26T02:32:09.819Z,22.19
2022-08-26T02:34:35.984Z,22.26
2022-08-26T02:37:03.207Z,22.23
2022-08-26T02:39:29.674Z,22.20
2022-08-26T02:41:55.801Z,22.15
2022-08-26T02:44:22.189Z,22.17
2022-08-26T02:46:48.406Z,22.09
2022-08-26T02:49:15.060Z,21.99
2022-08-26T02:51:41.204Z,21.97
2022-08-26T02:54:09.266Z,22.05
2022-08-26T02:56:35.728Z,22.05
2022-08-26T02:59:02.163Z,21.99
2022-08-26T03:01:28.339Z,22.03
2022-08-26T03:03:54.741Z,22.06
2022-08-26T03:06:21.104Z,22.06
2022-08-26T03:08:47.240Z,22.16
2022-08-26T03:11:13.376Z,22.10
2022-08-26T03:13:39.856Z,21.84
2022-08-26T03:16:06.012Z,21.70
2022-08-26T03:18:32.188Z,21.65
2022-08-26T03:20:58.394Z,21.72
2022-08-26T03:23:24.539Z,21.65
2022-08-26T03:25:50.680Z,21.75
2022-08-26T03:28:18.129Z,21.64
2022-08-26T03:30:45.876Z,21.61
2022-08-26T03:33:12.052Z,21.62
2022-08-26T03:35:38.225Z,21.60
2022-08-26T03:38:05.684Z,21.52
2022-08-26T03:40:31.918Z,21.62
2022-08-26T03:42:58.104Z,21.49
2022-08-26T03:45:25.886Z,21.49
2022-08-26T03:47:52.414Z,21.38
2022-08-26T03:50:22.842Z,21.34
2022-08-26T03:52:50.447Z,21.38
2022-08-26T03:55:16.580Z,21.23
2022-08-26T03:57:43.837Z,21.26
2022-08-26T04:00:10.214Z,21.12
2022-08-26T04:02:36.467Z,21.16
2022-08-26T04:05:02.749Z,21.37
2022-08-26T04:07:29.689Z,21.29
2022-08-26T04:09:58.242Z,21.16
2022-08-26T04:12:24.385Z,21.18
2022-08-26T04:14:50.675Z,21.17
2022-08-26T04:17:19.939Z,20.99
2022-08-26T04:19:51.175Z,20.79
2022-08-26T04:22:24.140Z,20.84
2022-08-26T04:24:51.244Z,21.01
2022-08-26T04:27:17.798Z,20.99
2022-08-26T04:29:43.935Z,20.98
2022-08-26T04:32:10.074Z,21.02
2022-08-26T04:34:36.362Z,20.99
2022-08-26T04:37:02.507Z,20.92
2022-08-26T04:39:28.658Z,20.95
2022-08-26T04:41:54.841Z,20.90
2022-08-26T04:44:20.986Z,20.95
2022-08-26T04:46:47.768Z,20.78
2022-08-26T04:49:15.206Z,20.93
2022-08-26T04:51:41.373Z,20.95
2022-08-26T04:54:10.097Z,20.88
2022-08-26T04:56:37.565Z,20.81
2022-08-26T04:59:03.781Z,20.82
2022-08-26T05:01:33.456Z,20.75
2022-08-26T05:04:08.002Z,20.71
2022-08-26T05:06:36.878Z,20.65
2022-08-26T05:09:03.360Z,20.54
2022-08-26T05:11:29.507Z,20.56
2022-08-26T05:13:58.153Z,20.46
2022-08-26T05:16:27.902Z,20.48
2022-08-26T05:18:54.102Z,20.40
2022-08-26T05:21:20.250Z,20.32
2022-08-26T05:23:46.398Z,20.33
2022-08-26T05:26:12.556Z,20.25
2022-08-26T05:28:42.676Z,20.19
2022-08-26T05:31:08.857Z,20.22
2022-08-26T05:33:35.059Z,20.17
2022-08-26T05:36:01.193Z,20.17
2022-08-26T05:38:30.316Z,20.30
2022-08-26T05:40:57.062Z,20.24
2022-08-26T05:43:23.200Z,20.25
2022-08-26T05:45:49.336Z,20.27
2022-08-26T05:48:16.198Z,20.24
2022-08-26T05:50:42.396Z,20.21
2022-08-26T05:53:09.344Z,20.13
2022-08-26T05:55:35.819Z,20.12
2022-08-26T05:58:05.195Z,20.15
2022-08-26T06:00:31.340Z,20.11
2022-08-26T06:02:57.577Z,20.17
2022-08-26T06:05:23.809Z,20.21
2022-08-26T06:07:50.000Z,20.26
2022-08-26T06:10:31.532Z,20.35
2022-08-26T06:12:58.070Z,20.35
2022-08-26T06:15:24.238Z,20.40
2022-08-26T06:17:50.375Z,20.36
2022-08-26T06:20:16.497Z,20.52
2022-08-26T06:22:43.489Z,20.46
2022-08-26T06:25:09.890Z,20.61
2022-08-26T06:27:36.232Z,20.75
2022-08-26T06:30:02.626Z,20.73
2022-08-26T06:32:28.853Z,20.77
2022-08-26T06:34:55.538Z,20.95
2022-08-26T06:37:21.691Z,20.89
2022-08-26T06:39:48.157Z,20.89
2022-08-26T06:42:17.379Z,20.85
2022-08-26T06:44:44.705Z,20.98
2022-08-26T06:47:11.031Z,20.93
2022-08-26T06:49:37.166Z,20.96
2022-08-26T06:52:03.409Z,21.08
2022-08-26T06:54:29.556Z,21.13
2022-08-26T06:56:55.724Z,21.16
2022-08-26T06:59:22.337Z,21.27
2022-08-26T07:01:48.497Z,21.28
2022-08-26T07:04:15.982Z,21.10
2022-08-26T07:06:48.402Z,21.19
2022-08-26T07:09:14.554Z,21.32
2022-08-26T07:11:40.777Z,21.31
2022-08-26T07:14:07.150Z,21.28
2022-08-26T07:16:33.279Z,21.44
2022-08-26T07:18:59.425Z,21.40
2022-08-26T07:21:27.361Z,21.35
2022-08-26T07:23:57.500Z,21.44
2022-08-26T07:26:26.272Z,21.57
2022-08-26T07:28:54.742Z,21.60
2022-08-26T07:31:21.003Z,21.56
2022-08-26T07:33:47.162Z,21.57
2022-08-26T07:36:13.309Z,21.45
2022-08-26T07:38:39.493Z,21.63
2022-08-26T07:41:05.634Z,21.71
2022-08-26T07:43:31.794Z,21.72
2022-08-26T07:45:57.955Z,21.74
2022-08-26T07:48:24.096Z,21.69
2022-08-26T07:50:50.793Z,21.76
2022-08-26T07:53:19.410Z,21.89
2022-08-26T07:55:45.616Z,21.94
2022-08-26T07:58:11.946Z,21.99
2022-08-26T08:00:38.076Z,22.18
2022-08-26T08:03:04.225Z,22.06
2022-08-26T08:05:33.521Z,22.24
2022-08-26T08:08:26.339Z,21.99
2022-08-26T08:10:48.926Z,21.98
2022-08-26T08:13:15.138Z,22.03
2022-08-26T08:15:41.321Z,22.23
2022-08-26T08:18:15.723Z,22.28
2022-08-26T08:20:44.837Z,22.22
2022-08-26T08:23:20.586Z,22.36
2022-08-26T08:25:47.810Z,22.44
2022-08-26T08:28:13.992Z,22.45
2022-08-26T08:30:40.763Z,22.39
2022-08-26T08:33:06.917Z,22.31
2022-08-26T08:35:33.806Z,22.59
2022-08-26T08:38:00.194Z,22.51
2022-08-26T08:40:30.416Z,22.65
2022-08-26T08:42:56.592Z,22.58
2022-08-26T08:45:22.776Z,22.65
2022-08-26T08:47:49.001Z,22.66
2022-08-26T08:50:15.160Z,22.79
2022-08-26T08:52:41.328Z,22.71
2022-08-26T08:55:10.979Z,22.71
2022-08-26T08:57:38.841Z,22.92
2022-08-26T09:00:05.257Z,22.82
2022-08-26T09:02:31.412Z,22.80
2022-08-26T09:04:57.584Z,23.01
2022-08-26T09:07:23.772Z,22.95
2022-08-26T09:09:50.756Z,23.07
2022-08-26T09:12:18.365Z,23.12
2022-08-26T09:14:46.080Z,23.44
2022-08-26T09:17:12.323Z,23.55
2022-08-26T09:19:38.513Z,23.50
2022-08-26T09:22:09.342Z,23.28
2022-08-26T09:24:39.630Z,23.39
2022-08-26T09:27:08.383Z,23.79
2022-08-26T09:29:37.685Z,23.73
2022-08-26T09:32:03.862Z,23.50
2022-08-26T09:34:30.011Z,23.68
2022-08-26T09:36:56.155Z,23.67
2022-08-26T09:39:22.298Z,23.89
2022-08-26T09:41:48.465Z,23.78
2022-08-26T09:44:15.607Z,24.02
2022-08-26T09:46:41.924Z,23.78
2022-08-26T09:49:08.402Z,23.91
2022-08-26T09:51:36.570Z,23.81
2022-08-26T09:54:03.613Z,23.68
2022-08-26T09:56:31.976Z,23.90
2022-08-26T09:58:58.193Z,23.85
2022-08-26T10:01:24.435Z,23.87
2022-08-26T10:03:50.673Z,23.75
2022-08-26T10:06:17.422Z,23.80
2022-08-26T10:08:44.183Z,23.93
2022-08-26T10:11:13.872Z,24.37
2022-08-26T10:13:40.019Z,24.48
2022-08-26T10:16:06.975Z,24.29
2022-08-26T10:18:37.018Z,24.19
2022-08-26T10:21:03.895Z,24.29
2022-08-26T10:23:30.061Z,24.37
2022-08-26T10:25:59.189Z,24.58
2022-08-26T10:28:25.521Z,24.10
2022-08-26T10:30:51.692Z,24.16
2022-08-26T10:33:18.237Z,24.29
2022-08-26T10:35:44.460Z,24.18
2022-08-26T10:38:10.844Z,24.47
2022-08-26T10:40:37.196Z,24.50
2022-08-26T10:43:08.492Z,24.85
2022-08-26T10:45:37.159Z,24.61
2022-08-26T10:48:03.511Z,24.62
2022-08-26T10:50:29.651Z,24.51
2022-08-26T10:52:55.802Z,24.53
2022-08-26T10:55:21.948Z,24.44
2022-08-26T10:57:48.793Z,24.95
2022-08-26T11:00:15.066Z,25.02
2022-08-26T11:02:41.232Z,24.62
2022-08-26T11:05:13.359Z,24.72
2022-08-26T11:07:39.493Z,24.83
2022-08-26T11:10:05.667Z,24.87
2022-08-26T11:12:32.742Z,24.65
2022-08-26T11:14:59.417Z,24.51
2022-08-26T11:17:25.605Z,24.49
2022-08-26T11:20:00.724Z,24.34
2022-08-26T11:22:28.225Z,24.50
2022-08-26T11:24:54.394Z,24.29
2022-08-26T11:27:20.543Z,24.55
2022-08-26T11:29:46.996Z,24.70
2022-08-26T11:32:13.861Z,24.84
2022-08-26T11:34:39.996Z,24.76
2022-08-26T11:37:06.156Z,24.80
2022-08-26T11:39:36.537Z,24.89
2022-08-26T11:42:03.177Z,24.81
2022-08-26T11:44:29.328Z,24.76
2022-08-26T11:46:55.484Z,24.87
2022-08-26T11:49:21.623Z,24.61
2022-08-26T11:51:48.512Z,24.59
2022-08-26T11:54:15.815Z,24.54
2022-08-26T11:56:42.187Z,24.33
2022-08-26T11:59:08.391Z,24.48
2022-08-26T12:01:34.693Z,24.56
2022-08-26T12:04:01.112Z,24.57
2022-08-26T12:08:58.494Z,24.28
2022-08-26T12:11:24.629Z,24.21
2022-08-26T12:13:50.794Z,24.43
2022-08-26T12:16:17.797Z,24.32
2022-08-26T12:18:44.901Z,24.39
2022-08-26T12:21:11.223Z,24.41
2022-08-26T12:23:37.390Z,24.64
2022-08-26T12:26:03.532Z,24.38
2022-08-26T12:28:30.058Z,24.53
2022-08-26T12:30:56.217Z,24.46
2022-08-26T12:33:23.368Z,24.26
2022-08-26T12:35:54.208Z,24.36
2022-08-26T12:38:22.613Z,24.46
2022-08-26T12:40:48.745Z,24.60
2022-08-26T12:43:14.950Z,24.49
2022-08-26T12:45:41.153Z,24.37
2022-08-26T12:48:07.367Z,24.28
2022-08-26T12:50:33.611Z,24.09
2022-08-26T12:52:59.757Z,23.98
2022-08-26T12:55:25.901Z,24.12
2022-08-26T12:57:52.062Z,24.09
2022-08-26T13:00:18.192Z,23.99
2022-08-26T13:02:45.051Z,23.96
2022-08-26T13:05:11.219Z,24.13
2022-08-26T13:07:37.375Z,24.20
2022-08-26T13:10:03.534Z,24.21
2022-08-26T13:12:29.708Z,23.90
2022-08-26T13:14:55.851Z,23.94
2022-08-26T13:17:21.995Z,23.85
2022-08-26T13:19:48.149Z,23.86
2022-08-26T13:22:14.284Z,23.74
2022-08-26T13:24:40.432Z,23.51
2022-08-26T13:27:06.582Z,23.69
2022-08-26T13:29:32.717Z,23.50
2022-08-26T13:31:58.855Z,23.41
2022-08-26T13:34:25.012Z,23.54
2022-08-26T13:36:51.145Z,23.56
2022-08-26T13:39:17.286Z,23.77
2022-08-26T13:41:43.817Z,23.76
2022-08-26T13:44:09.967Z,23.59
2022-08-26T13:46:36.243Z,23.64
2022-08-26T13:49:02.494Z,23.68
2022-08-26T13:51:28.646Z,23.99
2022-08-26T13:53:54.795Z,24.02
2022-08-26T13:56:20.952Z,23.98
2022-08-26T13:58:47.096Z,23.88
2022-08-26T14:01:13.455Z,23.60
2022-08-26T14:03:39.735Z,23.83
2022-08-26T14:06:05.942Z,23.78
2022-08-26T14:08:32.078Z,23.98
2022-08-26T14:10:58.231Z,23.75
2022-08-26T14:13:24.361Z,23.78
2022-08-26T14:15:50.548Z,23.70
2022-08-26T14:18:16.903Z,23.68
2022-08-26T14:20:43.126Z,23.76
2022-08-26T14:23:13.963Z,23.79
2022-08-26T14:25:40.644Z,23.86
2022-08-26T14:28:06.781Z,23.67
2022-08-26T14:30:32.915Z,23.56
2022-08-26T14:32:59.065Z,23.61
2022-08-26T14:35:25.199Z,23.70
2022-08-26T14:37:51.326Z,23.82
2022-08-26T14:40:17.561Z,23.81
2022-08-26T14:42:46.731Z,23.81
2022-08-26T14:45:19.050Z,23.93
2022-08-26T14:47:45.212Z,23.95
2022-08-26T14:50:11.341Z,23.90
2022-08-26T14:52:39.530Z,23.68
2022-08-26T14:55:05.845Z,23.50
2022-08-26T14:57:31.981Z,23.67
2022-08-26T14:59:58.768Z,23.57
2022-08-26T15:02:32.570Z,23.53
2022-08-26T15:04:59.805Z,23.48
2022-08-26T15:07:25.933Z,23.46
2022-08-26T15:09:52.062Z,23.35
2022-08-26T15:12:18.209Z,23.34
2022-08-26T15:14:44.329Z,23.48
2022-08-26T15:17:10.460Z,23.43
2022-08-26T15:19:36.611Z,23.46
2022-08-26T15:22:02.745Z,23.58
2022-08-26T15:24:28.907Z,23.53
2022-08-26T15:26:55.079Z,23.45
2022-08-26T15:29:21.224Z,23.53
2022-08-26T15:31:47.399Z,23.46
2022-08-26T15:34:16.690Z,23.36
2022-08-26T15:36:43.290Z,23.16
2022-08-26T15:39:09.461Z,23.16
2022-08-26T15:41:35.675Z,23.39
2022-08-26T15:44:01.881Z,23.19
2022-08-26T15:46:29.667Z,23.10
2022-08-26T15:48:56.495Z,22.96
2022-08-26T15:51:22.684Z,23.23
2022-08-26T15:53:48.862Z,23.31
2022-08-26T15:56:15.117Z,23.35
2022-08-26T15:58:41.256Z,23.34
2022-08-26T16:01:09.994Z,23.33
2022-08-26T16:03:36.542Z,23.28
2022-08-26T16:06:02.776Z,22.93
2022-08-26T16:08:28.987Z,23.17
2022-08-26T16:11:03.421Z,23.09
2022-08-26T16:13:29.799Z,23.21
2022-08-26T16:16:06.051Z,23.30
2022-08-26T16:18:32.209Z,23.22
2022-08-26T16:21:13.638Z,23.20
2022-08-26T16:23:40.258Z,23.20
2022-08-26T16:26:10.491Z,22.97
2022-08-26T16:28:36.938Z,23.04
2022-08-26T16:31:04.502Z,22.99
2022-08-26T16:33:30.712Z,22.81
2022-08-26T16:35:56.871Z,22.64
2022-08-26T16:38:23.042Z,22.52
2022-08-26T16:40:49.441Z,22.64
2022-08-26T16:43:15.581Z,22.74
2022-08-26T16:45:41.756Z,22.82
2022-08-26T16:48:08.365Z,22.73
2022-08-26T16:50:34.629Z,22.66
2022-08-26T16:53:01.176Z,22.80
2022-08-26T16:55:27.375Z,22.77
2022-08-26T16:57:53.526Z,22.58
2022-08-26T17:00:19.690Z,22.66
2022-08-26T17:02:45.950Z,22.65
2022-08-26T17:05:12.126Z,22.55
2022-08-26T17:07:38.299Z,22.40
2022-08-26T17:10:04.460Z,22.49
2022-08-26T17:12:30.623Z,22.53
2022-08-26T17:14:56.839Z,22.62
2022-08-26T17:17:22.982Z,22.42
2022-08-26T17:19:49.129Z,22.39
2022-08-26T17:22:15.292Z,22.39
2022-08-26T17:24:41.424Z,22.16
2022-08-26T17:27:07.645Z,22.21
2022-08-26T17:29:33.820Z,22.10
2022-08-26T17:31:59.954Z,22.22
2022-08-26T17:34:26.095Z,22.13
2022-08-26T17:36:52.268Z,22.20
2022-08-26T17:39:18.397Z,22.15
2022-08-26T17:41:44.532Z,22.11
2022-08-26T17:44:10.683Z,22.08
2022-08-26T17:46:38.453Z,21.92
2022-08-26T17:49:04.780Z,21.87
2022-08-26T17:51:31.013Z,21.88
2022-08-26T17:53:57.147Z,21.87
2022-08-26T17:56:23.296Z,22.04
2022-08-26T17:58:51.218Z,21.60
2022-08-26T18:01:17.896Z,21.84
2022-08-26T18:03:44.139Z,21.93
2022-08-26T18:06:11.164Z,21.66
2022-08-26T18:08:37.315Z,21.59
2022-08-26T18:11:03.508Z,21.60
2022-08-26T18:13:29.663Z,21.64
2022-08-26T18:15:55.852Z,21.53
2022-08-26T18:18:22.037Z,21.55
2022-08-26T18:20:51.884Z,21.72
2022-08-26T18:23:22.980Z,21.76
2022-08-26T18:25:52.916Z,21.87
2022-08-26T18:28:19.037Z,21.75
2022-08-26T18:30:45.244Z,21.59
2022-08-26T18:33:11.748Z,21.64
2022-08-26T18:35:38.046Z,21.69
2022-08-26T18:38:10.848Z,21.63
2022-08-26T18:40:37.644Z,21.73
2022-08-26T18:43:03.781Z,21.70
2022-08-26T18:45:29.924Z,21.62
2022-08-26T18:47:56.068Z,21.64
2022-08-26T18:50:22.212Z,21.58
2022-08-26T18:52:48.349Z,21.47
2022-08-26T18:55:14.778Z,21.66
2022-08-26T18:57:40.919Z,21.70
2022-08-26T19:00:07.060Z,21.67
2022-08-26T19:02:33.332Z,21.51
2022-08-26T19:04:59.557Z,21.43
2022-08-26T19:07:25.690Z,21.45
2022-08-26T19:09:54.117Z,21.53
2022-08-26T19:12:20.390Z,21.48
2022-08-26T19:14:46.550Z,21.52
2022-08-26T19:17:12.853Z,21.45
2022-08-26T19:19:39.062Z,21.43
2022-08-26T19:22:05.206Z,21.39
2022-08-26T19:24:33.760Z,21.53
2022-08-26T19:26:59.884Z,21.53
2022-08-26T19:29:26.036Z,21.40
2022-08-26T19:31:52.190Z,21.36
2022-08-26T19:34:20.837Z,21.31
2022-08-26T19:36:47.238Z,21.38
2022-08-26T19:39:13.431Z,21.08
2022-08-26T19:41:39.587Z,21.25
2022-08-26T19:44:05.725Z,21.22
2022-08-26T19:46:31.986Z,21.36
2022-08-26T19:48:58.219Z,21.33
2022-08-26T19:51:24.352Z,21.12
2022-08-26T19:53:50.485Z,21.25
2022-08-26T19:56:16.632Z,21.16
2022-08-26T19:58:42.766Z,21.02
2022-08-26T20:01:09.293Z,20.99
2022-08-26T20:03:35.508Z,21.02
2022-08-26T20:06:01.653Z,20.94
2022-08-26T20:08:27.806Z,21.01
2022-08-26T20:10:55.869Z,20.96
2022-08-26T20:13:21.994Z,21.06
2022-08-26T20:15:48.147Z,20.94
2022-08-26T20:18:14.314Z,20.70
2022-08-26T20:20:40.469Z,20.89
2022-08-26T20:23:06.638Z,20.91
2022-08-26T20:25:32.770Z,20.81
2022-08-26T20:27:58.903Z,20.81
2022-08-26T20:30:25.048Z,20.88
2022-08-26T20:32:51.183Z,20.89
2022-08-26T20:35:17.320Z,20.94
2022-08-26T20:37:43.482Z,21.01
2022-08-26T20:40:09.633Z,21.06
2022-08-26T20:42:35.824Z,20.87
2022-08-26T20:45:01.974Z,20.94
2022-08-26T20:47:28.116Z,20.81
2022-08-26T20:49:55.344Z,20.55
2022-08-26T20:52:21.490Z,20.61
2022-08-26T20:54:47.634Z,20.71
2022-08-26T20:57:13.778Z,20.61
2022-08-26T20:59:39.934Z,20.63
2022-08-26T21:02:06.070Z,20.55
2022-08-26T21:04:32.253Z,20.48
2022-08-26T21:06:58.451Z,20.36
2022-08-26T21:09:24.595Z,20.45
2022-08-26T21:11:50.749Z,20.45
2022-08-26T21:14:17.370Z,20.46
2022-08-26T21:16:43.727Z,20.39
2022-08-26T21:19:09.946Z,20.50
2022-08-26T21:21:36.082Z,20.47
2022-08-26T21:24:02.225Z,20.48
2022-08-26T21:26:28.357Z,20.41
2022-08-26T21:28:54.535Z,20.36
2022-08-26T21:31:20.713Z,20.31
2022-08-26T21:33:46.909Z,20.23
2022-08-26T21:36:13.070Z,20.39
2022-08-26T21:38:39.218Z,20.29
2022-08-26T21:41:05.357Z,19.91
2022-08-26T21:43:35.200Z,19.87
2022-08-26T21:46:01.951Z,20.13
2022-08-26T21:48:34.531Z,19.97
2022-08-26T21:51:00.892Z,20.15
2022-08-26T21:53:27.030Z,20.18
2022-08-26T21:55:53.170Z,20.25
2022-08-26T21:58:19.340Z,20.03
2022-08-26T22:00:45.499Z,19.95
2022-08-26T22:03:11.696Z,19.95
2022-08-26T22:05:37.899Z,19.99
2022-08-26T22:08:04.079Z,19.90
2022-08-26T22:10:30.257Z,19.94
2022-08-26T22:12:56.416Z,20.04
2022-08-26T22:15:22.545Z,20.23
2022-08-26T22:17:48.686Z,20.16
2022-08-26T22:20:16.550Z,20.07
2022-08-26T22:22:43.012Z,20.02
2022-08-26T22:25:09.236Z,19.99
2022-08-26T22:27:35.389Z,20.08
2022-08-26T22:30:06.684Z,20.13
2022-08-26T22:32:37.834Z,20.04
2022-08-26T22:35:03.984Z,19.94
2022-08-26T22:37:50.113Z,19.83
2022-08-26T22:40:16.292Z,19.68
2022-08-26T22:42:42.469Z,19.85
2022-08-26T22:45:21.666Z,19.94
2022-08-26T22:47:47.876Z,19.42
2022-08-26T22:50:14.045Z,19.52
2022-08-26T22:52:40.202Z,19.64
2022-08-26T22:55:06.362Z,19.45
2022-08-26T22:57:32.490Z,19.41
2022-08-26T22:59:58.642Z,19.46
2022-08-26T23:02:24.784Z,19.66
2022-08-26T23:04:50.937Z,19.66
2022-08-26T23:07:17.382Z,19.58
2022-08-26T23:09:43.519Z,19.57
2022-08-26T23:12:09.658Z,19.45
2022-08-26T23:14:35.820Z,19.37
2022-08-26T23:17:02.024Z,19.29
2022-08-26T23:19:28.205Z,19.50
2022-08-26T23:21:54.688Z,19.65
2022-08-26T23:24:20.829Z,19.64
2022-08-26T23:26:46.990Z,19.73
2022-08-26T23:29:13.149Z,19.69
2022-08-26T23:31:39.354Z,19.58
2022-08-26T23:34:05.505Z,19.43
2022-08-26T23:36:31.680Z,19.55
2022-08-26T23:39:01.158Z,19.59
2022-08-26T23:41:27.298Z,19.60
2022-08-26T23:43:53.518Z,19.58
2022-08-26T23:46:19.658Z,19.59
2022-08-26T23:48:45.800Z,19.51
2022-08-26T23:51:11.976Z,19.50
2022-08-26T23:53:38.100Z,19.52
2022-08-26T23:56:04.222Z,19.28
2022-08-26T23:58:30.373Z,19.53
